sensor_id;sensor_type;location;lat;lon;timestamp;P1;P2;P0
50321;PMS5003;36227;53.366;-1.426;2023-06-22T06:26:55;45;43;
50321;PMS5003;36227;53.366;-1.426;2023-06-22T06:52:47;48;42;
50321;PMS5003;36227;53.366;-1.426;2023-06-22T08:11:34;47;44;
50321;PMS5003;36227;53.366;-1.426;2023-06-22T08:13:59;44;43;
50321;PMS5003;36227;53.366;-1.426;2023-06-22T08:16:24;40;40;
50321;PMS5003;36227;53.366;-1.426;2023-06-22T08:18:49;45;42;
50321;PMS5003;36227;53.366;-1.426;2023-06-22T08:21:14;44;41;
50321;PMS5003;36227;53.366;-1.426;2023-06-22T08:23:40;45;44;
50321;PMS5003;36227;53.366;-1.426;2023-06-22T08:26:05;35;34;
50321;PMS5003;36227;53.366;-1.426;2023-06-22T08:28:30;40;39;
50321;PMS5003;36227;53.366;-1.426;2023-06-22T08:30:55;33;31;
50321;PMS5003;36227;53.366;-1.426;2023-06-22T08:33:20;33;30;
50321;PMS5003;36227;53.366;-1.426;2023-06-22T08:35:45;37;34;
50321;PMS5003;36227;53.366;-1.426;2023-06-22T08:38:10;29;27;
50321;PMS5003;36227;53.366;-1.426;2023-06-22T08:40:35;29;29;
50321;PMS5003;36227;53.366;-1.426;2023-06-22T08:43:00;36;34;
50321;PMS5003;36227;53.366;-1.426;2023-06-22T08:45:25;29;29;
50321;PMS5003;36227;53.366;-1.426;2023-06-22T08:47:50;30;24;
50321;PMS5003;36227;53.366;-1.426;2023-06-22T08:50:15;29;27;
50321;PMS5003;36227;53.366;-1.426;2023-06-22T08:52:41;33;30;
50321;PMS5003;36227;53.366;-1.426;2023-06-22T08:55:06;27;27;
50321;PMS5003;36227;53.366;-1.426;2023-06-22T08:57:31;60;58;
50321;PMS5003;36227;53.366;-1.426;2023-06-22T08:59:56;41;39;
50321;PMS5003;36227;53.366;-1.426;2023-06-22T09:02:21;48;47;
50321;PMS5003;36227;53.366;-1.426;2023-06-22T09:04:46;52;50;
50321;PMS5003;36227;53.366;-1.426;2023-06-22T09:07:11;55;51;
50321;PMS5003;36227;53.366;-1.426;2023-06-22T09:09:36;6;5;
50321;PMS5003;36227;53.366;-1.426;2023-06-22T09:12:02;18;17;
50321;PMS5003;36227;53.366;-1.426;2023-06-22T09:14:27;12;11;
50321;PMS5003;36227;53.366;-1.426;2023-06-22T09:16:52;12;12;
50321;PMS5003;36227;53.366;-1.426;2023-06-22T09:19:17;13;13;
50321;PMS5003;36227;53.366;-1.426;2023-06-22T09:21:42;16;15;
50321;PMS5003;36227;53.366;-1.426;2023-06-22T09:24:07;14;14;
50321;PMS5003;36227;53.366;-1.426;2023-06-22T09:26:32;12;12;
50321;PMS5003;36227;53.366;-1.426;2023-06-22T09:28:57;14;13;
50321;PMS5003;36227;53.366;-1.426;2023-06-22T09:31:22;17;16;
50321;PMS5003;36227;53.366;-1.426;2023-06-22T09:33:47;22;20;
50321;PMS5003;36227;53.366;-1.426;2023-06-22T09:36:12;19;17;
50321;PMS5003;36227;53.366;-1.426;2023-06-22T09:38:38;19;17;
50321;PMS5003;36227;53.366;-1.426;2023-06-22T09:41:03;16;14;
50321;PMS5003;36227;53.366;-1.426;2023-06-22T09:43:28;15;15;
50321;PMS5003;36227;53.366;-1.426;2023-06-22T09:45:53;16;15;
50321;PMS5003;36227;53.366;-1.426;2023-06-22T09:48:18;16;15;
50321;PMS5003;36227;53.366;-1.426;2023-06-22T09:50:43;21;21;
50321;PMS5003;36227;53.366;-1.426;2023-06-22T09:53:08;30;28;
50321;PMS5003;36227;53.366;-1.426;2023-06-22T09:55:33;34;32;
50321;PMS5003;36227;53.366;-1.426;2023-06-22T09:57:58;31;30;
50321;PMS5003;36227;53.366;-1.426;2023-06-22T10:00:23;42;35;
50321;PMS5003;36227;53.366;-1.426;2023-06-22T10:02:49;32;29;
50321;PMS5003;36227;53.366;-1.426;2023-06-22T10:05:14;8;7;
50321;PMS5003;36227;53.366;-1.426;2023-06-22T10:07:39;8;8;
50321;PMS5003;36227;53.366;-1.426;2023-06-22T10:10:04;7;6;
50321;PMS5003;36227;53.366;-1.426;2023-06-22T10:12:29;10;9;
50321;PMS5003;36227;53.366;-1.426;2023-06-22T10:14:54;9;9;
50321;PMS5003;36227;53.366;-1.426;2023-06-22T10:17:19;11;11;
50321;PMS5003;36227;53.366;-1.426;2023-06-22T10:19:44;10;10;
50321;PMS5003;36227;53.366;-1.426;2023-06-22T10:22:09;14;13;
50321;PMS5003;36227;53.366;-1.426;2023-06-22T10:24:34;11;11;
50321;PMS5003;36227;53.366;-1.426;2023-06-22T10:27:00;10;10;
50321;PMS5003;36227;53.366;-1.426;2023-06-22T10:29:25;12;12;
50321;PMS5003;36227;53.366;-1.426;2023-06-22T10:31:50;13;12;
50321;PMS5003;36227;53.366;-1.426;2023-06-22T10:34:15;18;16;
50321;PMS5003;36227;53.366;-1.426;2023-06-22T10:36:40;12;12;
50321;PMS5003;36227;53.366;-1.426;2023-06-22T10:39:05;13;12;
50321;PMS5003;36227;53.366;-1.426;2023-06-22T10:41:30;11;11;
50321;PMS5003;36227;53.366;-1.426;2023-06-22T10:43:56;14;12;
50321;PMS5003;36227;53.366;-1.426;2023-06-22T10:46:23;14;14;
50321;PMS5003;36227;53.366;-1.426;2023-06-22T10:48:47;13;10;
50321;PMS5003;36227;53.366;-1.426;2023-06-22T10:51:12;18;15;
50321;PMS5003;36227;53.366;-1.426;2023-06-22T10:53:38;9;9;
50321;PMS5003;36227;53.366;-1.426;2023-06-22T10:56:03;15;12;
50321;PMS5003;36227;53.366;-1.426;2023-06-22T10:58:28;14;13;
50321;PMS5003;36227;53.366;-1.426;2023-06-22T11:00:53;12;11;
50321;PMS5003;36227;53.366;-1.426;2023-06-22T11:03:19;10;9;
50321;PMS5003;36227;53.366;-1.426;2023-06-22T11:05:44;11;11;
50321;PMS5003;36227;53.366;-1.426;2023-06-22T11:08:09;15;14;
50321;PMS5003;36227;53.366;-1.426;2023-06-22T11:10:34;12;11;
50321;PMS5003;36227;53.366;-1.426;2023-06-22T11:13:00;10;10;
50321;PMS5003;36227;53.366;-1.426;2023-06-22T11:15:26;9;9;
50321;PMS5003;36227;53.366;-1.426;2023-06-22T11:17:51;12;11;
50321;PMS5003;36227;53.366;-1.426;2023-06-22T11:20:16;15;13;
50321;PMS5003;36227;53.366;-1.426;2023-06-22T11:22:41;11;10;
50321;PMS5003;36227;53.366;-1.426;2023-06-22T11:25:07;13;11;
50321;PMS5003;36227;53.366;-1.426;2023-06-22T11:27:32;12;10;
50321;PMS5003;36227;53.366;-1.426;2023-06-22T11:29:58;12;11;
50321;PMS5003;36227;53.366;-1.426;2023-06-22T11:32:23;13;12;
50321;PMS5003;36227;53.366;-1.426;2023-06-22T11:34:48;10;10;
50321;PMS5003;36227;53.366;-1.426;2023-06-22T11:37:13;11;11;
50321;PMS5003;36227;53.366;-1.426;2023-06-22T11:39:38;15;11;
50321;PMS5003;36227;53.366;-1.426;2023-06-22T11:42:04;9;9;
50321;PMS5003;36227;53.366;-1.426;2023-06-22T11:44:29;9;9;
50321;PMS5003;36227;53.366;-1.426;2023-06-22T11:46:54;16;12;
50321;PMS5003;36227;53.366;-1.426;2023-06-22T11:49:19;12;9;
50321;PMS5003;36227;53.366;-1.426;2023-06-22T11:51:45;15;13;
50321;PMS5003;36227;53.366;-1.426;2023-06-22T11:54:10;8;8;
50321;PMS5003;36227;53.366;-1.426;2023-06-22T11:56:35;14;13;
50321;PMS5003;36227;53.366;-1.426;2023-06-22T11:59:01;13;10;
50321;PMS5003;36227;53.366;-1.426;2023-06-22T12:01:26;14;14;
50321;PMS5003;36227;53.366;-1.426;2023-06-22T12:03:51;14;14;
50321;PMS5003;36227;53.366;-1.426;2023-06-22T12:06:17;13;13;
50321;PMS5003;36227;53.366;-1.426;2023-06-22T12:08:41;11;11;
50321;PMS5003;36227;53.366;-1.426;2023-06-22T12:11:07;11;11;
50321;PMS5003;36227;53.366;-1.426;2023-06-22T12:13:32;13;12;
50321;PMS5003;36227;53.366;-1.426;2023-06-22T12:15:57;14;14;
50321;PMS5003;36227;53.366;-1.426;2023-06-22T12:18:23;16;16;
50321;PMS5003;36227;53.366;-1.426;2023-06-22T12:20:48;15;15;
50321;PMS5003;36227;53.366;-1.426;2023-06-22T12:23:14;14;13;
50321;PMS5003;36227;53.366;-1.426;2023-06-22T12:25:40;14;13;
50321;PMS5003;36227;53.366;-1.426;2023-06-22T12:28:05;18;17;
50321;PMS5003;36227;53.366;-1.426;2023-06-22T12:30:32;17;13;
50321;PMS5003;36227;53.366;-1.426;2023-06-22T12:32:56;16;16;
50321;PMS5003;36227;53.366;-1.426;2023-06-22T12:35:22;15;13;
50321;PMS5003;36227;53.366;-1.426;2023-06-22T12:37:47;25;20;
50321;PMS5003;36227;53.366;-1.426;2023-06-22T12:40:12;20;19;
50321;PMS5003;36227;53.366;-1.426;2023-06-22T12:42:38;18;14;
50321;PMS5003;36227;53.366;-1.426;2023-06-22T12:45:03;17;16;
50321;PMS5003;36227;53.366;-1.426;2023-06-22T12:47:29;19;15;
50321;PMS5003;36227;53.366;-1.426;2023-06-22T12:49:54;16;15;
50321;PMS5003;36227;53.366;-1.426;2023-06-22T12:52:19;17;16;
50321;PMS5003;36227;53.366;-1.426;2023-06-22T12:54:45;14;14;
50321;PMS5003;36227;53.366;-1.426;2023-06-22T12:57:10;15;14;
50321;PMS5003;36227;53.366;-1.426;2023-06-22T12:59:35;13;12;
50321;PMS5003;36227;53.366;-1.426;2023-06-22T13:02:01;13;13;
50321;PMS5003;36227;53.366;-1.426;2023-06-22T13:04:26;8;8;
50321;PMS5003;36227;53.366;-1.426;2023-06-22T13:06:51;13;12;
50321;PMS5003;36227;53.366;-1.426;2023-06-22T13:09:17;12;12;
50321;PMS5003;36227;53.366;-1.426;2023-06-22T13:11:42;12;11;
50321;PMS5003;36227;53.366;-1.426;2023-06-22T13:14:07;9;7;
50321;PMS5003;36227;53.366;-1.426;2023-06-22T13:16:32;8;8;
50321;PMS5003;36227;53.366;-1.426;2023-06-22T13:18:57;9;9;
50321;PMS5003;36227;53.366;-1.426;2023-06-22T13:21:22;9;9;
50321;PMS5003;36227;53.366;-1.426;2023-06-22T13:23:48;13;13;
50321;PMS5003;36227;53.366;-1.426;2023-06-22T13:26:13;17;16;
50321;PMS5003;36227;53.366;-1.426;2023-06-22T13:28:38;14;14;
50321;PMS5003;36227;53.366;-1.426;2023-06-22T13:31:04;10;10;
50321;PMS5003;36227;53.366;-1.426;2023-06-22T13:33:29;9;8;
50321;PMS5003;36227;53.366;-1.426;2023-06-22T13:35:54;12;9;
50321;PMS5003;36227;53.366;-1.426;2023-06-22T13:38:19;7;7;
50321;PMS5003;36227;53.366;-1.426;2023-06-22T13:40:44;7;7;
50321;PMS5003;36227;53.366;-1.426;2023-06-22T13:43:09;8;8;
50321;PMS5003;36227;53.366;-1.426;2023-06-22T13:45:34;8;8;
50321;PMS5003;36227;53.366;-1.426;2023-06-22T13:48:00;9;9;
50321;PMS5003;36227;53.366;-1.426;2023-06-22T13:50:25;9;9;
50321;PMS5003;36227;53.366;-1.426;2023-06-22T13:52:50;10;8;
50321;PMS5003;36227;53.366;-1.426;2023-06-22T13:55:15;11;10;
50321;PMS5003;36227;53.366;-1.426;2023-06-22T13:57:40;9;9;
50321;PMS5003;36227;53.366;-1.426;2023-06-22T14:00:07;9;8;
50321;PMS5003;36227;53.366;-1.426;2023-06-22T14:02:31;6;6;
50321;PMS5003;36227;53.366;-1.426;2023-06-22T14:04:56;8;8;
50321;PMS5003;36227;53.366;-1.426;2023-06-22T14:07:22;7;7;
50321;PMS5003;36227;53.366;-1.426;2023-06-22T14:09:46;7;7;
50321;PMS5003;36227;53.366;-1.426;2023-06-22T14:12:12;7;7;
50321;PMS5003;36227;53.366;-1.426;2023-06-22T14:14:37;12;9;
50321;PMS5003;36227;53.366;-1.426;2023-06-22T14:17:03;9;7;
50321;PMS5003;36227;53.366;-1.426;2023-06-22T14:19:28;7;7;
50321;PMS5003;36227;53.366;-1.426;2023-06-22T14:21:52;10;10;
50321;PMS5003;36227;53.366;-1.426;2023-06-22T14:24:17;7;7;
50321;PMS5003;36227;53.366;-1.426;2023-06-22T14:26:42;7;7;
50321;PMS5003;36227;53.366;-1.426;2023-06-22T14:29:08;9;9;
50321;PMS5003;36227;53.366;-1.426;2023-06-22T14:31:33;8;8;
50321;PMS5003;36227;53.366;-1.426;2023-06-22T14:33:59;10;9;
50321;PMS5003;36227;53.366;-1.426;2023-06-22T14:36:24;8;8;
50321;PMS5003;36227;53.366;-1.426;2023-06-22T14:38:49;7;7;
50321;PMS5003;36227;53.366;-1.426;2023-06-22T14:41:14;6;6;
50321;PMS5003;36227;53.366;-1.426;2023-06-22T14:43:43;12;10;
50321;PMS5003;36227;53.366;-1.426;2023-06-22T14:46:04;6;6;
50321;PMS5003;36227;53.366;-1.426;2023-06-22T14:48:30;7;7;
50321;PMS5003;36227;53.366;-1.426;2023-06-22T14:50:54;8;8;
50321;PMS5003;36227;53.366;-1.426;2023-06-22T14:53:20;8;7;
50321;PMS5003;36227;53.366;-1.426;2023-06-22T14:55:45;6;6;
50321;PMS5003;36227;53.366;-1.426;2023-06-22T14:58:10;9;9;
50321;PMS5003;36227;53.366;-1.426;2023-06-22T15:00:36;8;8;
50321;PMS5003;36227;53.366;-1.426;2023-06-22T15:03:01;8;7;
50321;PMS5003;36227;53.366;-1.426;2023-06-22T15:05:26;9;9;
50321;PMS5003;36227;53.366;-1.426;2023-06-22T15:07:51;9;9;
50321;PMS5003;36227;53.366;-1.426;2023-06-22T15:10:16;8;8;
50321;PMS5003;36227;53.366;-1.426;2023-06-22T15:12:41;6;6;
50321;PMS5003;36227;53.366;-1.426;2023-06-22T15:15:07;7;7;
50321;PMS5003;36227;53.366;-1.426;2023-06-22T15:17:31;9;9;
50321;PMS5003;36227;53.366;-1.426;2023-06-22T15:19:57;8;8;
50321;PMS5003;36227;53.366;-1.426;2023-06-22T15:22:22;11;10;
50321;PMS5003;36227;53.366;-1.426;2023-06-22T15:24:47;6;5;
50321;PMS5003;36227;53.366;-1.426;2023-06-22T15:27:12;10;8;
50321;PMS5003;36227;53.366;-1.426;2023-06-22T15:29:37;8;8;
50321;PMS5003;36227;53.366;-1.426;2023-06-22T15:32:02;7;7;
50321;PMS5003;36227;53.366;-1.426;2023-06-22T15:34:27;8;8;
50321;PMS5003;36227;53.366;-1.426;2023-06-22T15:36:52;8;7;
50321;PMS5003;36227;53.366;-1.426;2023-06-22T15:39:17;7;7;
50321;PMS5003;36227;53.366;-1.426;2023-06-22T15:41:42;9;8;
50321;PMS5003;36227;53.366;-1.426;2023-06-22T15:44:07;9;9;
50321;PMS5003;36227;53.366;-1.426;2023-06-22T15:46:32;10;10;
50321;PMS5003;36227;53.366;-1.426;2023-06-22T15:48:57;9;9;
50321;PMS5003;36227;53.366;-1.426;2023-06-22T15:51:23;8;8;
50321;PMS5003;36227;53.366;-1.426;2023-06-22T15:53:48;9;8;
50321;PMS5003;36227;53.366;-1.426;2023-06-22T15:56:13;11;7;
50321;PMS5003;36227;53.366;-1.426;2023-06-22T15:58:38;7;6;
50321;PMS5003;36227;53.366;-1.426;2023-06-22T16:01:03;8;8;
50321;PMS5003;36227;53.366;-1.426;2023-06-22T16:03:28;9;8;
50321;PMS5003;36227;53.366;-1.426;2023-06-22T16:05:53;8;8;
50321;PMS5003;36227;53.366;-1.426;2023-06-22T16:08:18;12;10;
50321;PMS5003;36227;53.366;-1.426;2023-06-22T16:10:43;13;13;
50321;PMS5003;36227;53.366;-1.426;2023-06-22T16:13:09;8;8;
50321;PMS5003;36227;53.366;-1.426;2023-06-22T16:15:34;12;12;
50321;PMS5003;36227;53.366;-1.426;2023-06-22T16:17:58;8;8;
50321;PMS5003;36227;53.366;-1.426;2023-06-22T16:20:24;8;8;
50321;PMS5003;36227;53.366;-1.426;2023-06-22T16:22:49;9;7;
50321;PMS5003;36227;53.366;-1.426;2023-06-22T16:25:14;10;8;
50321;PMS5003;36227;53.366;-1.426;2023-06-22T16:27:39;8;8;
50321;PMS5003;36227;53.366;-1.426;2023-06-22T16:30:04;8;8;
50321;PMS5003;36227;53.366;-1.426;2023-06-22T16:32:29;8;8;
50321;PMS5003;36227;53.366;-1.426;2023-06-22T16:34:54;10;9;
50321;PMS5003;36227;53.366;-1.426;2023-06-22T16:37:19;7;7;
50321;PMS5003;36227;53.366;-1.426;2023-06-22T16:39:44;8;8;
50321;PMS5003;36227;53.366;-1.426;2023-06-22T16:42:09;8;8;
50321;PMS5003;36227;53.366;-1.426;2023-06-22T16:44:34;6;6;
50321;PMS5003;36227;53.366;-1.426;2023-06-22T16:47:00;7;7;
50321;PMS5003;36227;53.366;-1.426;2023-06-22T16:49:24;10;9;
50321;PMS5003;36227;53.366;-1.426;2023-06-22T16:51:50;9;9;
50321;PMS5003;36227;53.366;-1.426;2023-06-22T16:54:15;9;8;
50321;PMS5003;36227;53.366;-1.426;2023-06-22T16:56:40;10;10;
50321;PMS5003;36227;53.366;-1.426;2023-06-22T16:59:05;8;8;
50321;PMS5003;36227;53.366;-1.426;2023-06-22T17:01:31;10;9;
50321;PMS5003;36227;53.366;-1.426;2023-06-22T17:04:00;9;9;
50321;PMS5003;36227;53.366;-1.426;2023-06-22T17:06:21;8;8;
50321;PMS5003;36227;53.366;-1.426;2023-06-22T17:08:46;12;11;
50321;PMS5003;36227;53.366;-1.426;2023-06-22T17:11:11;8;8;
50321;PMS5003;36227;53.366;-1.426;2023-06-22T17:13:36;9;8;
50321;PMS5003;36227;53.366;-1.426;2023-06-22T17:16:01;9;9;
50321;PMS5003;36227;53.366;-1.426;2023-06-22T17:18:26;8;8;
50321;PMS5003;36227;53.366;-1.426;2023-06-22T17:20:51;11;9;
50321;PMS5003;36227;53.366;-1.426;2023-06-22T17:23:16;10;10;
50321;PMS5003;36227;53.366;-1.426;2023-06-22T17:25:41;9;9;
50321;PMS5003;36227;53.366;-1.426;2023-06-22T17:28:07;11;11;
50321;PMS5003;36227;53.366;-1.426;2023-06-22T17:30:32;7;6;
50321;PMS5003;36227;53.366;-1.426;2023-06-22T17:32:57;9;7;
50321;PMS5003;36227;53.366;-1.426;2023-06-22T17:35:22;8;8;
50321;PMS5003;36227;53.366;-1.426;2023-06-22T17:37:49;13;12;
50321;PMS5003;36227;53.366;-1.426;2023-06-22T17:40:14;10;10;
50321;PMS5003;36227;53.366;-1.426;2023-06-22T17:42:39;13;10;
50321;PMS5003;36227;53.366;-1.426;2023-06-22T17:45:04;12;11;
50321;PMS5003;36227;53.366;-1.426;2023-06-22T17:47:29;13;11;
50321;PMS5003;36227;53.366;-1.426;2023-06-22T17:52:19;11;10;
50321;PMS5003;36227;53.366;-1.426;2023-06-22T17:54:45;11;11;
50321;PMS5003;36227;53.366;-1.426;2023-06-22T17:57:14;11;10;
50321;PMS5003;36227;53.366;-1.426;2023-06-22T17:59:36;10;10;
50321;PMS5003;36227;53.366;-1.426;2023-06-22T18:02:06;12;11;
50321;PMS5003;36227;53.366;-1.426;2023-06-22T18:04:26;9;8;
50321;PMS5003;36227;53.366;-1.426;2023-06-22T18:06:51;8;8;
50321;PMS5003;36227;53.366;-1.426;2023-06-22T18:09:17;14;13;
50321;PMS5003;36227;53.366;-1.426;2023-06-22T18:11:43;14;13;
50321;PMS5003;36227;53.366;-1.426;2023-06-22T18:14:08;19;19;
50321;PMS5003;36227;53.366;-1.426;2023-06-22T18:16:34;16;16;
50321;PMS5003;36227;53.366;-1.426;2023-06-22T18:18:59;16;15;
50321;PMS5003;36227;53.366;-1.426;2023-06-22T18:21:24;14;13;
50321;PMS5003;36227;53.366;-1.426;2023-06-22T18:23:49;14;13;
50321;PMS5003;36227;53.366;-1.426;2023-06-22T18:26:14;15;14;
50321;PMS5003;36227;53.366;-1.426;2023-06-22T18:28:39;11;11;
50321;PMS5003;36227;53.366;-1.426;2023-06-22T18:31:05;14;13;
50321;PMS5003;36227;53.366;-1.426;2023-06-22T18:33:29;11;11;
50321;PMS5003;36227;53.366;-1.426;2023-06-22T18:35:55;12;12;
50321;PMS5003;36227;53.366;-1.426;2023-06-22T18:38:20;17;16;
50321;PMS5003;36227;53.366;-1.426;2023-06-22T18:40:48;14;14;
50321;PMS5003;36227;53.366;-1.426;2023-06-22T18:43:11;13;12;
50321;PMS5003;36227;53.366;-1.426;2023-06-22T18:45:36;11;11;
50321;PMS5003;36227;53.366;-1.426;2023-06-22T18:48:04;10;10;
50321;PMS5003;36227;53.366;-1.426;2023-06-22T18:50:36;14;14;
50321;PMS5003;36227;53.366;-1.426;2023-06-22T18:55:19;14;13;
50321;PMS5003;36227;53.366;-1.426;2023-06-22T18:57:44;15;15;
50321;PMS5003;36227;53.366;-1.426;2023-06-22T19:00:09;14;9;
50321;PMS5003;36227;53.366;-1.426;2023-06-22T19:02:39;12;10;
50321;PMS5003;36227;53.366;-1.426;2023-06-22T19:07:32;11;9;
50321;PMS5003;36227;53.366;-1.426;2023-06-22T19:12:16;12;10;
50321;PMS5003;36227;53.366;-1.426;2023-06-22T19:14:40;9;9;
50321;PMS5003;36227;53.366;-1.426;2023-06-22T19:17:06;12;12;
50321;PMS5003;36227;53.366;-1.426;2023-06-22T19:19:33;13;13;
50321;PMS5003;36227;53.366;-1.426;2023-06-22T19:21:58;11;11;
50321;PMS5003;36227;53.366;-1.426;2023-06-22T19:26:50;13;13;
50321;PMS5003;36227;53.366;-1.426;2023-06-22T19:29:14;15;14;
50321;PMS5003;36227;53.366;-1.426;2023-06-22T19:31:37;17;16;
50321;PMS5003;36227;53.366;-1.426;2023-06-22T19:34:03;16;16;
50321;PMS5003;36227;53.366;-1.426;2023-06-22T19:36:30;13;13;
50321;PMS5003;36227;53.366;-1.426;2023-06-22T19:38:54;14;13;
50321;PMS5003;36227;53.366;-1.426;2023-06-22T19:41:20;12;12;
50321;PMS5003;36227;53.366;-1.426;2023-06-22T19:43:44;15;12;
50321;PMS5003;36227;53.366;-1.426;2023-06-22T19:46:09;12;12;
50321;PMS5003;36227;53.366;-1.426;2023-06-22T19:48:34;11;11;
50321;PMS5003;36227;53.366;-1.426;2023-06-22T19:51:03;8;7;
50321;PMS5003;36227;53.366;-1.426;2023-06-22T19:53:25;12;10;
50321;PMS5003;36227;53.366;-1.426;2023-06-22T19:55:51;11;11;
50321;PMS5003;36227;53.366;-1.426;2023-06-22T19:58:16;13;12;
50321;PMS5003;36227;53.366;-1.426;2023-06-22T20:00:42;12;11;
50321;PMS5003;36227;53.366;-1.426;2023-06-22T20:03:08;11;10;
50321;PMS5003;36227;53.366;-1.426;2023-06-22T20:05:32;12;12;
50321;PMS5003;36227;53.366;-1.426;2023-06-22T20:08:01;12;12;
50321;PMS5003;36227;53.366;-1.426;2023-06-22T20:10:23;11;11;
50321;PMS5003;36227;53.366;-1.426;2023-06-22T20:12:48;14;12;
50321;PMS5003;36227;53.366;-1.426;2023-06-22T20:15:19;14;13;
50321;PMS5003;36227;53.366;-1.426;2023-06-22T20:17:40;18;17;
50321;PMS5003;36227;53.366;-1.426;2023-06-22T20:20:04;16;14;
50321;PMS5003;36227;53.366;-1.426;2023-06-22T20:22:29;10;10;
50321;PMS5003;36227;53.366;-1.426;2023-06-22T20:24:55;10;10;
50321;PMS5003;36227;53.366;-1.426;2023-06-22T20:27:20;11;11;
50321;PMS5003;36227;53.366;-1.426;2023-06-22T20:29:46;13;13;
50321;PMS5003;36227;53.366;-1.426;2023-06-22T20:32:12;11;9;
50321;PMS5003;36227;53.366;-1.426;2023-06-22T20:34:36;10;10;
50321;PMS5003;36227;53.366;-1.426;2023-06-22T20:37:01;13;12;
50321;PMS5003;36227;53.366;-1.426;2023-06-22T20:39:26;13;12;
50321;PMS5003;36227;53.366;-1.426;2023-06-22T20:41:52;14;12;
50321;PMS5003;36227;53.366;-1.426;2023-06-22T20:44:18;12;12;
50321;PMS5003;36227;53.366;-1.426;2023-06-22T20:46:43;10;10;
50321;PMS5003;36227;53.366;-1.426;2023-06-22T20:49:08;14;12;
50321;PMS5003;36227;53.366;-1.426;2023-06-22T20:51:34;11;11;
50321;PMS5003;36227;53.366;-1.426;2023-06-22T20:53:59;12;12;
50321;PMS5003;36227;53.366;-1.426;2023-06-22T20:56:25;14;11;
50321;PMS5003;36227;53.366;-1.426;2023-06-22T20:58:50;27;23;
50321;PMS5003;36227;53.366;-1.426;2023-06-22T21:01:16;41;37;
50321;PMS5003;36227;53.366;-1.426;2023-06-22T21:03:41;30;26;
50321;PMS5003;36227;53.366;-1.426;2023-06-22T21:06:07;19;19;
50321;PMS5003;36227;53.366;-1.426;2023-06-22T21:08:33;17;15;
50321;PMS5003;36227;53.366;-1.426;2023-06-22T21:10:58;15;13;
50321;PMS5003;36227;53.366;-1.426;2023-06-22T21:13:23;15;15;
50321;PMS5003;36227;53.366;-1.426;2023-06-22T21:15:48;13;12;
50321;PMS5003;36227;53.366;-1.426;2023-06-22T21:18:13;13;12;
50321;PMS5003;36227;53.366;-1.426;2023-06-22T21:20:39;17;17;
50321;PMS5003;36227;53.366;-1.426;2023-06-22T21:23:04;17;15;
50321;PMS5003;36227;53.366;-1.426;2023-06-22T21:25:29;14;13;
50321;PMS5003;36227;53.366;-1.426;2023-06-22T21:27:54;17;16;
50321;PMS5003;36227;53.366;-1.426;2023-06-22T21:30:20;15;14;
50321;PMS5003;36227;53.366;-1.426;2023-06-22T21:32:45;13;13;
50321;PMS5003;36227;53.366;-1.426;2023-06-22T21:35:10;15;14;
50321;PMS5003;36227;53.366;-1.426;2023-06-22T21:37:35;12;12;
50321;PMS5003;36227;53.366;-1.426;2023-06-22T21:40:00;16;14;
50321;PMS5003;36227;53.366;-1.426;2023-06-22T21:42:26;13;13;
50321;PMS5003;36227;53.366;-1.426;2023-06-22T21:44:51;16;14;
50321;PMS5003;36227;53.366;-1.426;2023-06-22T21:47:17;16;15;
50321;PMS5003;36227;53.366;-1.426;2023-06-22T21:49:42;17;17;
50321;PMS5003;36227;53.366;-1.426;2023-06-22T21:52:08;25;22;
50321;PMS5003;36227;53.366;-1.426;2023-06-22T21:54:33;24;24;
50321;PMS5003;36227;53.366;-1.426;2023-06-22T21:56:58;27;25;
50321;PMS5003;36227;53.366;-1.426;2023-06-22T21:59:24;28;28;
50321;PMS5003;36227;53.366;-1.426;2023-06-22T22:01:49;22;18;
50321;PMS5003;36227;53.366;-1.426;2023-06-22T22:04:15;22;20;
50321;PMS5003;36227;53.366;-1.426;2023-06-22T22:06:40;18;18;
50321;PMS5003;36227;53.366;-1.426;2023-06-22T22:09:06;21;19;
50321;PMS5003;36227;53.366;-1.426;2023-06-22T22:11:31;15;15;
50321;PMS5003;36227;53.366;-1.426;2023-06-22T22:13:57;20;18;
50321;PMS5003;36227;53.366;-1.426;2023-06-22T22:16:22;17;17;
50321;PMS5003;36227;53.366;-1.426;2023-06-22T22:18:47;16;15;
50321;PMS5003;36227;53.366;-1.426;2023-06-22T22:21:12;15;14;
50321;PMS5003;36227;53.366;-1.426;2023-06-22T22:23:37;17;17;
50321;PMS5003;36227;53.366;-1.426;2023-06-22T22:26:02;16;15;
50321;PMS5003;36227;53.366;-1.426;2023-06-22T22:28:28;17;14;
50321;PMS5003;36227;53.366;-1.426;2023-06-22T22:30:53;16;15;
50321;PMS5003;36227;53.366;-1.426;2023-06-22T22:33:21;15;15;
50321;PMS5003;36227;53.366;-1.426;2023-06-22T23:07:22;22;19;
50321;PMS5003;36227;53.366;-1.426;2023-06-22T23:09:41;19;17;
50321;PMS5003;36227;53.366;-1.426;2023-06-22T23:12:07;14;14;
50321;PMS5003;36227;53.366;-1.426;2023-06-22T23:14:32;19;18;
50321;PMS5003;36227;53.366;-1.426;2023-06-22T23:16:58;17;17;
50321;PMS5003;36227;53.366;-1.426;2023-06-22T23:19:23;18;17;
50321;PMS5003;36227;53.366;-1.426;2023-06-22T23:21:48;18;17;
50321;PMS5003;36227;53.366;-1.426;2023-06-22T23:24:14;14;13;
50321;PMS5003;36227;53.366;-1.426;2023-06-22T23:26:40;19;17;
50321;PMS5003;36227;53.366;-1.426;2023-06-22T23:29:05;21;20;
50321;PMS5003;36227;53.366;-1.426;2023-06-22T23:31:31;21;19;
50321;PMS5003;36227;53.366;-1.426;2023-06-22T23:33:56;15;13;
50321;PMS5003;36227;53.366;-1.426;2023-06-22T23:36:21;18;17;
50321;PMS5003;36227;53.366;-1.426;2023-06-22T23:38:47;16;16;
50321;PMS5003;36227;53.366;-1.426;2023-06-22T23:41:13;21;19;
50321;PMS5003;36227;53.366;-1.426;2023-06-22T23:43:38;16;16;
50321;PMS5003;36227;53.366;-1.426;2023-06-22T23:46:04;16;15;
50321;PMS5003;36227;53.366;-1.426;2023-06-22T23:48:29;18;16;
50321;PMS5003;36227;53.366;-1.426;2023-06-22T23:50:54;15;13;
